Tuesday, September 16, 2014
01:01 UTC
  |  Log In   |  Register Free
Airport Search:

Williamsburg-Jamestown Airport
(KJGG)

Williamsburg-Jamestown Airport Diagram
No Airport Diagram Available

FAA data valid effective July 24, 2014 until September 18, 2014 (unless otherwise noted).

 
 
 
 
 
 
 
 
 
 
 
 
 
 

Current Aviation Weather for Williamsburg-Jamestown Airport (KJGG)

The most recent METAR observation for KJGG was updated at: 0012
METAR Summary (Translated METAR)
KJGG
152355Z AUTO 16007KT 10SM OVC044 23/18 A3013 RMK AO1
KFAF
152358Z AUTO 16008KT 10SM OVC027 21/15 A3011 RMK AO2 SLP199 T02100150 10235 20210 55005 $
(8.2 nm SE from KJGG)
KPHF
152354Z 14006KT 10SM OVC026 23/16 A3013 RMK AO2 SLP201 T02280156 10256 20222 55005
(12.5 nm SE from KJGG)
TAF Summary (Translated TAF)
KFAF
(8.2 nm SE from KJGG)
1520/1624 10009KT 9999 BKN035 OVC060 QNH3010INS BECMG 1522/1523 15009KT 9999 OVC035 QNH2999INS BECMG 1613/1614 31012KT 9999 FEW020 BKN060 QNH2996INS BECMG 1620/1621 35009KT 9999 BKN060 QNH2996INS TX27/1618Z TN19/1610Z COR 152015 LAST NO AMDS AFT 1603 NEXT 1610
KPHF
(12.5 nm SE from KJGG)
151725Z 1518/1618 VRB05KT P6SM OVC040 FM160500 21005KT P6SM -SHRA BKN020 BKN045 FM161000 25005KT 4SM -SHRA BR BKN007 OVC015 FM161400 VRB06KT P6SM VCSH BKN010 BKN030
  Airport Weather Conditions for KJGG

 Current Weather at JGG
73° F
Overcast
South winds at 6.9 mph
JGG NOAA Radar

Pressure: 30.13 in
Humidity: 74%
Wind: South at 6.9 MPH (6 KT)
Dew Point: 64.4°F
Visibility: 10.00 mi


Airport Weather Forecast for KJGG

Translated METAR and TAF for KJGG
Translated METAR for KJGG (0055 UTC 16 September 2014)
found at http://aviationweather.gov/adds/metars/
 
METAR text: KJGG 160035Z AUTO 17008KT 10SM BKN031 BKN050 22/17 A3014 RMK AO1
Conditions at: KJGG (WILLIAMSBURG , VA, US) observed 0035 UTC 16 September 2014
Temperature: 22.0°C (72°F)
Dewpoint: 17.0°C (63°F) [RH = 73%]
Pressure (altimeter): 30.14 inches Hg (1020.7 mb)
Winds: from the S (170 degrees) at 9 MPH (8 knots; 4.2 m/s)
Visibility: 10 or more miles (16+ km)
Ceiling: 3100 feet AGL
Clouds: broken clouds at 3100 feet AGL
broken clouds at 5000 feet AGL
Weather: automated observation with no human augmentation;
there may or may not be significant weather present at this time
Translated TAF for KJGG

There is no translated TAF available for this airport

Find All Airport Services Find A Hotel Find A Rental Car Find A Golf Course Find A Restaurant $100 Hamburger



FBO's on the Field
FBO Company Facility Photos Services Transportation Aviation Fuel Prices: Prices include tax
Catering Weather Repair Courtesy Rental Type 100LL JetA JetA+ MOGAS 8087
 
Williamsburg-Jamestown

This FBO has not yet been rated
FS:Shell
Last Updated: Aug-08
Login to update fuel prices
SS:
Contact Williamsburg-JamestownMore FBO Information
 
Add another FBO Facility Photos Catering Weather Repair Courtesy Rental Type 100LL JetA JetA+ MOGAS 8087
Services Transportation Aviation Fuel Prices: Prices include tax


model-print
model-print
model-print
model-print